America, Illinois
Current Conditions -  °F | °C
As of 7:15 AM on Thursday 30 Oct 2014 (Local Time) from KCIR Reporting Station
Haze Haze  
Wind Chill: 37°   Ceiling: 700
Heat Index: 37°   Visibility: 1.7mi
Dew Point: 34°   Wind: 0mph
Humidity: 91%   Direction: NA
Pressure: 30.18"   Gusts: NA
Location:  37.1575°N, 89.1781°W
Report Text: KCIR 301215Z AUTO 00000KT 1 3/4SM BR VV007 03/01 A3018 RMK AO2 T00260013
Loading
Personal Weather Stations






























Interactive Weather Map New forecast layout! Learn more

10-Day Weather Forecast

Advertisements
Track Severe Weather on mobile